sensor_id;sensor_type;location;lat;lon;timestamp;P1;durP1;ratioP1;P2;durP2;ratioP2
16979;SDS011;42288;52.182;21.156;2023-09-19T00:01:42;18.33;;;9.77;;
16979;SDS011;42288;52.182;21.156;2023-09-19T00:04:11;17.00;;;10.70;;
16979;SDS011;42288;52.182;21.156;2023-09-19T00:06:38;13.97;;;10.17;;
16979;SDS011;42288;52.182;21.156;2023-09-19T00:09:04;16.67;;;10.27;;
16979;SDS011;42288;52.182;21.156;2023-09-19T00:11:29;16.00;;;10.30;;
16979;SDS011;42288;52.182;21.156;2023-09-19T00:13:56;18.73;;;10.93;;
16979;SDS011;42288;52.182;21.156;2023-09-19T00:16:24;15.37;;;10.33;;
16979;SDS011;42288;52.182;21.156;2023-09-19T00:18:50;16.83;;;9.53;;
16979;SDS011;42288;52.182;21.156;2023-09-19T00:21:16;15.83;;;10.10;;
16979;SDS011;42288;52.182;21.156;2023-09-19T00:23:41;18.40;;;11.63;;
16979;SDS011;42288;52.182;21.156;2023-09-19T00:26:07;14.47;;;9.63;;
16979;SDS011;42288;52.182;21.156;2023-09-19T00:28:33;14.53;;;9.97;;
16979;SDS011;42288;52.182;21.156;2023-09-19T00:30:58;17.67;;;11.07;;
16979;SDS011;42288;52.182;21.156;2023-09-19T00:33:26;16.30;;;11.00;;
16979;SDS011;42288;52.182;21.156;2023-09-19T00:35:54;18.03;;;10.37;;
16979;SDS011;42288;52.182;21.156;2023-09-19T00:38:22;21.53;;;12.07;;
16979;SDS011;42288;52.182;21.156;2023-09-19T00:40:51;17.67;;;10.77;;
16979;SDS011;42288;52.182;21.156;2023-09-19T00:43:18;16.23;;;11.33;;
16979;SDS011;42288;52.182;21.156;2023-09-19T00:45:45;14.13;;;9.77;;
16979;SDS011;42288;52.182;21.156;2023-09-19T00:48:13;15.27;;;10.77;;
16979;SDS011;42288;52.182;21.156;2023-09-19T00:50:40;15.40;;;10.37;;
16979;SDS011;42288;52.182;21.156;2023-09-19T00:53:07;20.23;;;11.07;;
16979;SDS011;42288;52.182;21.156;2023-09-19T00:55:35;16.00;;;10.43;;
16979;SDS011;42288;52.182;21.156;2023-09-19T00:58:09;15.87;;;10.93;;
16979;SDS011;42288;52.182;21.156;2023-09-19T01:00:35;16.13;;;10.47;;
16979;SDS011;42288;52.182;21.156;2023-09-19T01:03:02;17.87;;;10.80;;
16979;SDS011;42288;52.182;21.156;2023-09-19T01:05:28;15.53;;;11.40;;
16979;SDS011;42288;52.182;21.156;2023-09-19T01:07:54;15.40;;;10.53;;
16979;SDS011;42288;52.182;21.156;2023-09-19T01:10:20;13.97;;;10.30;;
16979;SDS011;42288;52.182;21.156;2023-09-19T01:32:08;18.33;;;11.23;;
16979;SDS011;42288;52.182;21.156;2023-09-19T01:37:17;16.13;;;10.50;;
16979;SDS011;42288;52.182;21.156;2023-09-19T01:39:51;14.30;;;10.13;;
16979;SDS011;42288;52.182;21.156;2023-09-19T01:47:54;15.07;;;9.83;;
16979;SDS011;42288;52.182;21.156;2023-09-19T01:53:27;18.30;;;11.57;;
16979;SDS011;42288;52.182;21.156;2023-09-19T01:56:00;20.00;;;10.23;;
16979;SDS011;42288;52.182;21.156;2023-09-19T01:58:33;15.87;;;10.40;;
16979;SDS011;42288;52.182;21.156;2023-09-19T02:01:08;19.90;;;10.90;;
16979;SDS011;42288;52.182;21.156;2023-09-19T02:03:36;15.90;;;11.00;;
16979;SDS011;42288;52.182;21.156;2023-09-19T02:06:03;15.97;;;10.40;;
16979;SDS011;42288;52.182;21.156;2023-09-19T02:08:30;16.90;;;11.13;;
16979;SDS011;42288;52.182;21.156;2023-09-19T02:10:58;17.37;;;11.03;;
16979;SDS011;42288;52.182;21.156;2023-09-19T02:13:25;15.43;;;10.47;;
16979;SDS011;42288;52.182;21.156;2023-09-19T02:15:53;16.27;;;9.80;;
16979;SDS011;42288;52.182;21.156;2023-09-19T02:18:18;16.73;;;10.83;;
16979;SDS011;42288;52.182;21.156;2023-09-19T02:20:45;18.27;;;11.50;;
16979;SDS011;42288;52.182;21.156;2023-09-19T02:23:11;15.93;;;10.97;;
16979;SDS011;42288;52.182;21.156;2023-09-19T02:25:37;18.13;;;11.10;;
16979;SDS011;42288;52.182;21.156;2023-09-19T02:28:05;14.97;;;10.97;;
16979;SDS011;42288;52.182;21.156;2023-09-19T02:30:31;17.73;;;10.93;;
16979;SDS011;42288;52.182;21.156;2023-09-19T02:32:57;16.43;;;11.33;;
16979;SDS011;42288;52.182;21.156;2023-09-19T02:35:26;17.87;;;10.80;;
16979;SDS011;42288;52.182;21.156;2023-09-19T02:37:53;15.87;;;10.13;;
16979;SDS011;42288;52.182;21.156;2023-09-19T02:40:18;17.23;;;10.77;;
16979;SDS011;42288;52.182;21.156;2023-09-19T02:42:44;14.67;;;10.17;;
16979;SDS011;42288;52.182;21.156;2023-09-19T02:45:15;16.93;;;10.80;;
16979;SDS011;42288;52.182;21.156;2023-09-19T02:47:43;14.70;;;10.60;;
16979;SDS011;42288;52.182;21.156;2023-09-19T02:50:09;19.00;;;12.33;;
16979;SDS011;42288;52.182;21.156;2023-09-19T02:52:36;20.23;;;11.23;;
16979;SDS011;42288;52.182;21.156;2023-09-19T02:55:02;15.33;;;10.40;;
16979;SDS011;42288;52.182;21.156;2023-09-19T02:57:30;21.20;;;12.47;;
16979;SDS011;42288;52.182;21.156;2023-09-19T02:59:58;14.00;;;11.13;;
16979;SDS011;42288;52.182;21.156;2023-09-19T03:02:26;17.07;;;11.50;;
16979;SDS011;42288;52.182;21.156;2023-09-19T03:04:52;18.50;;;11.60;;
16979;SDS011;42288;52.182;21.156;2023-09-19T03:07:18;17.77;;;11.27;;
16979;SDS011;42288;52.182;21.156;2023-09-19T03:09:44;20.67;;;11.60;;
16979;SDS011;42288;52.182;21.156;2023-09-19T03:12:10;17.30;;;10.77;;
16979;SDS011;42288;52.182;21.156;2023-09-19T03:14:36;15.03;;;10.17;;
16979;SDS011;42288;52.182;21.156;2023-09-19T03:17:02;15.63;;;10.53;;
16979;SDS011;42288;52.182;21.156;2023-09-19T03:19:30;16.27;;;11.33;;
16979;SDS011;42288;52.182;21.156;2023-09-19T03:21:58;17.50;;;10.70;;
16979;SDS011;42288;52.182;21.156;2023-09-19T03:24:24;15.00;;;9.60;;
16979;SDS011;42288;52.182;21.156;2023-09-19T03:26:50;19.40;;;10.83;;
16979;SDS011;42288;52.182;21.156;2023-09-19T03:29:16;14.83;;;10.70;;
16979;SDS011;42288;52.182;21.156;2023-09-19T03:31:42;18.97;;;11.40;;
16979;SDS011;42288;52.182;21.156;2023-09-19T03:34:08;16.90;;;11.53;;
16979;SDS011;42288;52.182;21.156;2023-09-19T03:36:34;18.97;;;11.73;;
16979;SDS011;42288;52.182;21.156;2023-09-19T03:38:59;15.90;;;10.67;;
16979;SDS011;42288;52.182;21.156;2023-09-19T03:41:25;19.00;;;10.77;;
16979;SDS011;42288;52.182;21.156;2023-09-19T03:43:51;18.57;;;10.87;;
16979;SDS011;42288;52.182;21.156;2023-09-19T03:46:17;15.33;;;10.67;;
16979;SDS011;42288;52.182;21.156;2023-09-19T03:48:42;18.53;;;11.60;;
16979;SDS011;42288;52.182;21.156;2023-09-19T03:51:08;18.83;;;10.87;;
16979;SDS011;42288;52.182;21.156;2023-09-19T03:53:34;14.83;;;10.33;;
16979;SDS011;42288;52.182;21.156;2023-09-19T03:55:59;17.47;;;11.07;;
16979;SDS011;42288;52.182;21.156;2023-09-19T03:58:25;18.17;;;11.67;;
16979;SDS011;42288;52.182;21.156;2023-09-19T04:00:54;15.70;;;10.40;;
16979;SDS011;42288;52.182;21.156;2023-09-19T04:03:20;19.27;;;11.17;;
16979;SDS011;42288;52.182;21.156;2023-09-19T04:05:46;15.30;;;11.40;;
16979;SDS011;42288;52.182;21.156;2023-09-19T04:08:15;17.87;;;11.60;;
16979;SDS011;42288;52.182;21.156;2023-09-19T04:10:43;17.90;;;10.03;;
16979;SDS011;42288;52.182;21.156;2023-09-19T04:13:10;18.30;;;12.17;;
16979;SDS011;42288;52.182;21.156;2023-09-19T04:15:36;16.17;;;10.03;;
16979;SDS011;42288;52.182;21.156;2023-09-19T04:18:02;16.90;;;10.87;;
16979;SDS011;42288;52.182;21.156;2023-09-19T04:20:28;17.63;;;12.20;;
16979;SDS011;42288;52.182;21.156;2023-09-19T04:22:54;17.90;;;11.00;;
16979;SDS011;42288;52.182;21.156;2023-09-19T04:25:20;17.07;;;10.40;;
16979;SDS011;42288;52.182;21.156;2023-09-19T04:27:46;15.53;;;11.80;;
16979;SDS011;42288;52.182;21.156;2023-09-19T04:30:12;16.47;;;10.83;;
16979;SDS011;42288;52.182;21.156;2023-09-19T04:32:39;17.43;;;12.40;;
16979;SDS011;42288;52.182;21.156;2023-09-19T04:35:06;17.23;;;11.67;;
16979;SDS011;42288;52.182;21.156;2023-09-19T04:37:34;15.17;;;11.00;;
16979;SDS011;42288;52.182;21.156;2023-09-19T04:40:05;15.77;;;11.20;;
16979;SDS011;42288;52.182;21.156;2023-09-19T04:42:31;16.80;;;11.57;;
16979;SDS011;42288;52.182;21.156;2023-09-19T04:44:57;17.20;;;11.43;;
16979;SDS011;42288;52.182;21.156;2023-09-19T04:47:24;16.20;;;11.50;;
16979;SDS011;42288;52.182;21.156;2023-09-19T04:49:51;19.37;;;10.57;;
16979;SDS011;42288;52.182;21.156;2023-09-19T04:52:16;14.37;;;10.20;;
16979;SDS011;42288;52.182;21.156;2023-09-19T04:54:42;18.03;;;11.13;;
16979;SDS011;42288;52.182;21.156;2023-09-19T04:57:07;13.63;;;10.13;;
16979;SDS011;42288;52.182;21.156;2023-09-19T04:59:33;23.13;;;10.70;;
16979;SDS011;42288;52.182;21.156;2023-09-19T05:01:59;18.40;;;10.83;;
16979;SDS011;42288;52.182;21.156;2023-09-19T05:04:24;16.33;;;10.40;;
16979;SDS011;42288;52.182;21.156;2023-09-19T05:06:50;16.37;;;11.00;;
16979;SDS011;42288;52.182;21.156;2023-09-19T05:09:16;16.40;;;11.27;;
16979;SDS011;42288;52.182;21.156;2023-09-19T05:11:44;16.90;;;10.73;;
16979;SDS011;42288;52.182;21.156;2023-09-19T05:14:11;18.57;;;10.43;;
16979;SDS011;42288;52.182;21.156;2023-09-19T05:16:37;15.73;;;9.20;;
16979;SDS011;42288;52.182;21.156;2023-09-19T05:19:02;15.63;;;10.80;;
16979;SDS011;42288;52.182;21.156;2023-09-19T05:21:28;16.07;;;9.60;;
16979;SDS011;42288;52.182;21.156;2023-09-19T05:23:55;15.00;;;9.73;;
16979;SDS011;42288;52.182;21.156;2023-09-19T05:26:21;17.47;;;10.73;;
16979;SDS011;42288;52.182;21.156;2023-09-19T05:28:47;13.67;;;9.93;;
16979;SDS011;42288;52.182;21.156;2023-09-19T05:31:13;17.07;;;11.33;;
16979;SDS011;42288;52.182;21.156;2023-09-19T05:33:39;19.53;;;10.30;;
16979;SDS011;42288;52.182;21.156;2023-09-19T05:36:04;15.60;;;9.70;;
16979;SDS011;42288;52.182;21.156;2023-09-19T05:38:30;15.70;;;10.20;;
16979;SDS011;42288;52.182;21.156;2023-09-19T05:40:57;13.60;;;10.23;;
16979;SDS011;42288;52.182;21.156;2023-09-19T05:43:23;15.17;;;10.93;;
16979;SDS011;42288;52.182;21.156;2023-09-19T05:45:49;14.20;;;9.87;;
16979;SDS011;42288;52.182;21.156;2023-09-19T05:48:17;14.43;;;10.57;;
16979;SDS011;42288;52.182;21.156;2023-09-19T05:50:43;18.47;;;11.03;;
16979;SDS011;42288;52.182;21.156;2023-09-19T05:53:13;19.03;;;9.67;;
16979;SDS011;42288;52.182;21.156;2023-09-19T05:55:39;14.90;;;10.67;;
16979;SDS011;42288;52.182;21.156;2023-09-19T05:58:05;19.17;;;10.90;;
16979;SDS011;42288;52.182;21.156;2023-09-19T06:00:31;16.03;;;10.43;;
16979;SDS011;42288;52.182;21.156;2023-09-19T06:02:57;17.23;;;10.63;;
16979;SDS011;42288;52.182;21.156;2023-09-19T06:05:24;14.80;;;10.23;;
16979;SDS011;42288;52.182;21.156;2023-09-19T06:07:56;15.57;;;9.77;;
16979;SDS011;42288;52.182;21.156;2023-09-19T06:10:25;13.40;;;8.77;;
16979;SDS011;42288;52.182;21.156;2023-09-19T06:12:51;12.87;;;9.37;;
16979;SDS011;42288;52.182;21.156;2023-09-19T06:15:18;17.50;;;10.40;;
16979;SDS011;42288;52.182;21.156;2023-09-19T06:17:50;12.07;;;9.30;;
16979;SDS011;42288;52.182;21.156;2023-09-19T06:20:20;16.60;;;10.27;;
16979;SDS011;42288;52.182;21.156;2023-09-19T06:22:47;12.23;;;9.40;;
16979;SDS011;42288;52.182;21.156;2023-09-19T06:25:13;12.90;;;9.10;;
16979;SDS011;42288;52.182;21.156;2023-09-19T06:27:44;16.43;;;9.23;;
16979;SDS011;42288;52.182;21.156;2023-09-19T06:30:14;13.43;;;9.30;;
16979;SDS011;42288;52.182;21.156;2023-09-19T06:32:40;14.53;;;8.93;;
16979;SDS011;42288;52.182;21.156;2023-09-19T06:35:10;14.10;;;9.67;;
16979;SDS011;42288;52.182;21.156;2023-09-19T06:37:39;14.23;;;9.30;;
16979;SDS011;42288;52.182;21.156;2023-09-19T06:40:14;13.77;;;9.33;;
16979;SDS011;42288;52.182;21.156;2023-09-19T06:42:43;16.63;;;9.43;;
16979;SDS011;42288;52.182;21.156;2023-09-19T06:45:10;15.17;;;9.30;;
16979;SDS011;42288;52.182;21.156;2023-09-19T06:47:38;17.00;;;9.00;;
16979;SDS011;42288;52.182;21.156;2023-09-19T06:50:04;13.83;;;8.80;;
16979;SDS011;42288;52.182;21.156;2023-09-19T06:52:31;13.23;;;8.50;;
16979;SDS011;42288;52.182;21.156;2023-09-19T06:54:58;14.37;;;9.77;;
16979;SDS011;42288;52.182;21.156;2023-09-19T06:57:23;14.80;;;10.00;;
16979;SDS011;42288;52.182;21.156;2023-09-19T06:59:49;13.70;;;9.40;;
16979;SDS011;42288;52.182;21.156;2023-09-19T07:02:15;14.63;;;9.23;;
16979;SDS011;42288;52.182;21.156;2023-09-19T07:04:40;16.63;;;9.17;;
16979;SDS011;42288;52.182;21.156;2023-09-19T07:07:06;13.10;;;8.60;;
16979;SDS011;42288;52.182;21.156;2023-09-19T07:09:34;15.53;;;8.80;;
16979;SDS011;42288;52.182;21.156;2023-09-19T07:11:59;15.90;;;10.03;;
16979;SDS011;42288;52.182;21.156;2023-09-19T07:14:25;15.97;;;9.77;;
16979;SDS011;42288;52.182;21.156;2023-09-19T07:16:51;18.33;;;9.77;;
16979;SDS011;42288;52.182;21.156;2023-09-19T07:19:17;13.97;;;9.60;;
16979;SDS011;42288;52.182;21.156;2023-09-19T07:21:42;14.87;;;9.77;;
16979;SDS011;42288;52.182;21.156;2023-09-19T07:24:08;14.30;;;9.00;;
16979;SDS011;42288;52.182;21.156;2023-09-19T07:26:34;14.10;;;8.70;;
16979;SDS011;42288;52.182;21.156;2023-09-19T07:28:59;16.27;;;9.43;;
16979;SDS011;42288;52.182;21.156;2023-09-19T07:31:28;15.77;;;9.50;;
16979;SDS011;42288;52.182;21.156;2023-09-19T07:33:54;13.30;;;8.37;;
16979;SDS011;42288;52.182;21.156;2023-09-19T07:36:20;16.37;;;8.80;;
16979;SDS011;42288;52.182;21.156;2023-09-19T07:38:45;13.00;;;9.27;;
16979;SDS011;42288;52.182;21.156;2023-09-19T07:41:13;13.60;;;8.67;;
16979;SDS011;42288;52.182;21.156;2023-09-19T07:43:38;13.30;;;9.40;;
16979;SDS011;42288;52.182;21.156;2023-09-19T07:46:08;14.63;;;9.17;;
16979;SDS011;42288;52.182;21.156;2023-09-19T07:48:37;12.83;;;8.90;;
16979;SDS011;42288;52.182;21.156;2023-09-19T07:51:06;14.37;;;9.23;;
16979;SDS011;42288;52.182;21.156;2023-09-19T07:53:34;13.13;;;8.60;;
16979;SDS011;42288;52.182;21.156;2023-09-19T07:56:06;13.20;;;8.80;;
16979;SDS011;42288;52.182;21.156;2023-09-19T07:58:33;16.20;;;10.33;;
16979;SDS011;42288;52.182;21.156;2023-09-19T08:01:06;13.43;;;9.93;;
16979;SDS011;42288;52.182;21.156;2023-09-19T08:03:33;13.50;;;9.23;;
16979;SDS011;42288;52.182;21.156;2023-09-19T08:05:59;12.93;;;10.03;;
16979;SDS011;42288;52.182;21.156;2023-09-19T08:08:26;13.03;;;9.23;;
16979;SDS011;42288;52.182;21.156;2023-09-19T08:10:56;17.60;;;10.03;;
16979;SDS011;42288;52.182;21.156;2023-09-19T08:13:22;17.13;;;10.30;;
16979;SDS011;42288;52.182;21.156;2023-09-19T08:15:49;16.53;;;9.93;;
16979;SDS011;42288;52.182;21.156;2023-09-19T08:18:15;14.83;;;9.70;;
16979;SDS011;42288;52.182;21.156;2023-09-19T08:20:42;14.03;;;9.77;;
16979;SDS011;42288;52.182;21.156;2023-09-19T08:23:08;15.40;;;10.87;;
16979;SDS011;42288;52.182;21.156;2023-09-19T08:25:33;15.53;;;9.60;;
16979;SDS011;42288;52.182;21.156;2023-09-19T08:27:59;17.27;;;10.33;;
16979;SDS011;42288;52.182;21.156;2023-09-19T08:30:26;14.50;;;9.90;;
16979;SDS011;42288;52.182;21.156;2023-09-19T08:32:58;15.83;;;10.73;;
16979;SDS011;42288;52.182;21.156;2023-09-19T08:35:29;17.93;;;10.67;;
16979;SDS011;42288;52.182;21.156;2023-09-19T08:37:55;17.87;;;11.17;;
16979;SDS011;42288;52.182;21.156;2023-09-19T08:40:21;18.00;;;11.90;;
16979;SDS011;42288;52.182;21.156;2023-09-19T08:42:47;15.70;;;11.40;;
16979;SDS011;42288;52.182;21.156;2023-09-19T08:45:14;21.53;;;12.70;;
16979;SDS011;42288;52.182;21.156;2023-09-19T08:47:46;21.20;;;12.90;;
16979;SDS011;42288;52.182;21.156;2023-09-19T08:50:19;17.43;;;12.03;;
16979;SDS011;42288;52.182;21.156;2023-09-19T08:52:52;18.77;;;11.47;;
16979;SDS011;42288;52.182;21.156;2023-09-19T08:55:28;18.13;;;12.07;;
16979;SDS011;42288;52.182;21.156;2023-09-19T08:58:01;20.23;;;13.00;;
16979;SDS011;42288;52.182;21.156;2023-09-19T09:00:29;17.70;;;12.37;;
16979;SDS011;42288;52.182;21.156;2023-09-19T09:02:56;16.37;;;12.23;;
16979;SDS011;42288;52.182;21.156;2023-09-19T09:05:23;15.60;;;12.00;;
16979;SDS011;42288;52.182;21.156;2023-09-19T09:07:49;16.20;;;10.87;;
16979;SDS011;42288;52.182;21.156;2023-09-19T09:10:16;17.03;;;11.50;;
16979;SDS011;42288;52.182;21.156;2023-09-19T09:12:43;15.83;;;12.03;;
16979;SDS011;42288;52.182;21.156;2023-09-19T09:15:09;15.90;;;11.80;;
16979;SDS011;42288;52.182;21.156;2023-09-19T09:17:36;16.03;;;11.93;;
16979;SDS011;42288;52.182;21.156;2023-09-19T09:20:03;18.73;;;11.80;;
16979;SDS011;42288;52.182;21.156;2023-09-19T09:22:33;17.80;;;12.50;;
16979;SDS011;42288;52.182;21.156;2023-09-19T09:24:59;16.90;;;11.50;;
16979;SDS011;42288;52.182;21.156;2023-09-19T09:27:28;16.13;;;11.53;;
16979;SDS011;42288;52.182;21.156;2023-09-19T09:29:54;17.60;;;10.67;;
16979;SDS011;42288;52.182;21.156;2023-09-19T09:34:51;19.20;;;11.73;;
16979;SDS011;42288;52.182;21.156;2023-09-19T09:37:18;16.00;;;10.20;;
16979;SDS011;42288;52.182;21.156;2023-09-19T09:39:52;15.73;;;10.10;;
16979;SDS011;42288;52.182;21.156;2023-09-19T09:42:32;12.50;;;8.87;;
16979;SDS011;42288;52.182;21.156;2023-09-19T09:45:33;16.40;;;9.73;;
16979;SDS011;42288;52.182;21.156;2023-09-19T09:47:58;17.27;;;9.73;;
16979;SDS011;42288;52.182;21.156;2023-09-19T09:52:55;15.27;;;9.20;;
16979;SDS011;42288;52.182;21.156;2023-09-19T09:58:50;12.37;;;8.97;;
16979;SDS011;42288;52.182;21.156;2023-09-19T10:01:20;12.60;;;8.33;;
16979;SDS011;42288;52.182;21.156;2023-09-19T10:03:46;11.47;;;7.50;;
16979;SDS011;42288;52.182;21.156;2023-09-19T10:06:15;16.60;;;7.43;;
16979;SDS011;42288;52.182;21.156;2023-09-19T10:11:40;14.97;;;6.57;;
16979;SDS011;42288;52.182;21.156;2023-09-19T10:14:10;8.57;;;5.33;;
16979;SDS011;42288;52.182;21.156;2023-09-19T10:16:40;8.73;;;5.17;;
16979;SDS011;42288;52.182;21.156;2023-09-19T10:19:20;9.60;;;5.40;;
16979;SDS011;42288;52.182;21.156;2023-09-19T10:21:55;16.23;;;7.20;;
16979;SDS011;42288;52.182;21.156;2023-09-19T10:24:22;14.10;;;7.03;;
16979;SDS011;42288;52.182;21.156;2023-09-19T10:26:51;17.57;;;8.13;;
16979;SDS011;42288;52.182;21.156;2023-09-19T10:29:19;14.43;;;7.27;;
16979;SDS011;42288;52.182;21.156;2023-09-19T10:31:47;11.17;;;6.50;;
16979;SDS011;42288;52.182;21.156;2023-09-19T10:34:16;11.33;;;6.20;;
16979;SDS011;42288;52.182;21.156;2023-09-19T10:36:46;11.83;;;6.43;;
16979;SDS011;42288;52.182;21.156;2023-09-19T10:39:15;8.97;;;5.70;;
16979;SDS011;42288;52.182;21.156;2023-09-19T10:41:44;14.67;;;7.50;;
16979;SDS011;42288;52.182;21.156;2023-09-19T10:44:21;10.70;;;6.37;;
16979;SDS011;42288;52.182;21.156;2023-09-19T10:46:53;13.90;;;7.27;;
16979;SDS011;42288;52.182;21.156;2023-09-19T10:49:20;13.07;;;6.67;;
16979;SDS011;42288;52.182;21.156;2023-09-19T10:51:46;9.27;;;6.90;;
16979;SDS011;42288;52.182;21.156;2023-09-19T10:54:16;12.10;;;7.53;;
16979;SDS011;42288;52.182;21.156;2023-09-19T10:56:46;14.67;;;7.37;;
16979;SDS011;42288;52.182;21.156;2023-09-19T10:59:15;13.83;;;7.53;;
16979;SDS011;42288;52.182;21.156;2023-09-19T11:01:52;13.90;;;7.50;;
16979;SDS011;42288;52.182;21.156;2023-09-19T11:07:00;10.20;;;7.50;;
16979;SDS011;42288;52.182;21.156;2023-09-19T11:12:11;12.83;;;7.50;;
16979;SDS011;42288;52.182;21.156;2023-09-19T11:14:38;13.33;;;7.43;;
16979;SDS011;42288;52.182;21.156;2023-09-19T11:30:31;12.73;;;8.70;;
16979;SDS011;42288;52.182;21.156;2023-09-19T11:33:20;17.33;;;9.77;;
16979;SDS011;42288;52.182;21.156;2023-09-19T11:47:14;17.67;;;10.13;;
16979;SDS011;42288;52.182;21.156;2023-09-19T11:49:18;17.60;;;9.83;;
16979;SDS011;42288;52.182;21.156;2023-09-19T11:51:50;18.43;;;10.70;;
16979;SDS011;42288;52.182;21.156;2023-09-19T11:54:19;18.10;;;10.50;;
16979;SDS011;42288;52.182;21.156;2023-09-19T11:56:49;18.40;;;11.40;;
16979;SDS011;42288;52.182;21.156;2023-09-19T11:59:22;16.77;;;9.93;;
16979;SDS011;42288;52.182;21.156;2023-09-19T12:01:53;16.50;;;9.63;;
16979;SDS011;42288;52.182;21.156;2023-09-19T12:04:32;15.50;;;9.03;;
16979;SDS011;42288;52.182;21.156;2023-09-19T12:07:02;14.70;;;7.83;;
16979;SDS011;42288;52.182;21.156;2023-09-19T12:09:29;14.47;;;8.33;;
16979;SDS011;42288;52.182;21.156;2023-09-19T12:11:55;10.50;;;6.77;;
16979;SDS011;42288;52.182;21.156;2023-09-19T12:14:25;12.63;;;8.30;;
16979;SDS011;42288;52.182;21.156;2023-09-19T12:16:55;15.87;;;7.90;;
16979;SDS011;42288;52.182;21.156;2023-09-19T12:19:22;11.50;;;7.23;;
16979;SDS011;42288;52.182;21.156;2023-09-19T12:21:58;11.93;;;7.90;;
16979;SDS011;42288;52.182;21.156;2023-09-19T12:24:31;11.63;;;8.40;;
16979;SDS011;42288;52.182;21.156;2023-09-19T12:27:01;12.27;;;8.30;;
16979;SDS011;42288;52.182;21.156;2023-09-19T12:29:30;16.93;;;11.07;;
16979;SDS011;42288;52.182;21.156;2023-09-19T12:31:57;11.63;;;8.47;;
16979;SDS011;42288;52.182;21.156;2023-09-19T12:34:24;12.43;;;8.03;;
16979;SDS011;42288;52.182;21.156;2023-09-19T12:37:13;11.97;;;8.40;;
16979;SDS011;42288;52.182;21.156;2023-09-19T12:39:46;14.93;;;8.70;;
16979;SDS011;42288;52.182;21.156;2023-09-19T12:42:14;12.70;;;9.03;;
16979;SDS011;42288;52.182;21.156;2023-09-19T12:44:41;12.60;;;7.70;;
16979;SDS011;42288;52.182;21.156;2023-09-19T12:47:09;11.03;;;6.83;;
16979;SDS011;42288;52.182;21.156;2023-09-19T12:49:36;10.13;;;6.93;;
16979;SDS011;42288;52.182;21.156;2023-09-19T12:52:21;11.07;;;6.90;;
16979;SDS011;42288;52.182;21.156;2023-09-19T12:54:51;11.77;;;7.27;;
16979;SDS011;42288;52.182;21.156;2023-09-19T12:57:25;12.33;;;6.83;;
16979;SDS011;42288;52.182;21.156;2023-09-19T12:59:54;14.40;;;7.03;;
16979;SDS011;42288;52.182;21.156;2023-09-19T13:02:20;10.67;;;6.50;;
16979;SDS011;42288;52.182;21.156;2023-09-19T13:04:52;12.27;;;6.67;;
16979;SDS011;42288;52.182;21.156;2023-09-19T13:10:12;9.37;;;6.57;;
16979;SDS011;42288;52.182;21.156;2023-09-19T13:12:40;10.07;;;6.33;;
16979;SDS011;42288;52.182;21.156;2023-09-19T13:15:09;10.50;;;6.57;;
16979;SDS011;42288;52.182;21.156;2023-09-19T13:17:45;8.90;;;6.27;;
16979;SDS011;42288;52.182;21.156;2023-09-19T13:20:22;8.40;;;6.47;;
16979;SDS011;42288;52.182;21.156;2023-09-19T13:22:57;9.73;;;6.20;;
16979;SDS011;42288;52.182;21.156;2023-09-19T13:25:33;10.93;;;6.70;;
16979;SDS011;42288;52.182;21.156;2023-09-19T13:27:59;9.80;;;6.07;;
16979;SDS011;42288;52.182;21.156;2023-09-19T13:30:29;9.17;;;6.80;;
16979;SDS011;42288;52.182;21.156;2023-09-19T13:33:09;9.93;;;5.97;;
16979;SDS011;42288;52.182;21.156;2023-09-19T13:35:36;8.10;;;6.20;;
16979;SDS011;42288;52.182;21.156;2023-09-19T13:38:05;8.37;;;5.97;;
16979;SDS011;42288;52.182;21.156;2023-09-19T13:40:31;12.73;;;6.93;;
16979;SDS011;42288;52.182;21.156;2023-09-19T13:42:59;12.73;;;6.43;;
16979;SDS011;42288;52.182;21.156;2023-09-19T13:45:26;8.80;;;5.90;;
16979;SDS011;42288;52.182;21.156;2023-09-19T13:47:55;10.07;;;6.37;;
16979;SDS011;42288;52.182;21.156;2023-09-19T13:50:21;11.47;;;6.20;;
16979;SDS011;42288;52.182;21.156;2023-09-19T13:52:49;8.40;;;5.53;;
16979;SDS011;42288;52.182;21.156;2023-09-19T13:55:16;9.97;;;6.00;;
16979;SDS011;42288;52.182;21.156;2023-09-19T13:57:45;11.93;;;6.50;;
16979;SDS011;42288;52.182;21.156;2023-09-19T14:00:21;8.63;;;5.73;;
16979;SDS011;42288;52.182;21.156;2023-09-19T14:02:47;8.13;;;5.93;;
16979;SDS011;42288;52.182;21.156;2023-09-19T14:05:14;13.53;;;7.03;;
16979;SDS011;42288;52.182;21.156;2023-09-19T14:07:41;10.93;;;5.80;;
16979;SDS011;42288;52.182;21.156;2023-09-19T14:10:08;10.07;;;6.23;;
16979;SDS011;42288;52.182;21.156;2023-09-19T14:12:35;9.93;;;6.37;;
16979;SDS011;42288;52.182;21.156;2023-09-19T14:15:02;12.53;;;6.57;;
16979;SDS011;42288;52.182;21.156;2023-09-19T14:17:30;12.37;;;6.20;;
16979;SDS011;42288;52.182;21.156;2023-09-19T14:19:56;11.17;;;6.47;;
16979;SDS011;42288;52.182;21.156;2023-09-19T14:22:22;12.90;;;6.87;;
16979;SDS011;42288;52.182;21.156;2023-09-19T14:24:48;12.80;;;6.57;;
16979;SDS011;42288;52.182;21.156;2023-09-19T14:27:13;11.50;;;6.70;;
16979;SDS011;42288;52.182;21.156;2023-09-19T14:29:39;7.60;;;5.70;;
16979;SDS011;42288;52.182;21.156;2023-09-19T14:32:06;11.20;;;5.87;;
16979;SDS011;42288;52.182;21.156;2023-09-19T14:34:31;9.87;;;5.83;;
16979;SDS011;42288;52.182;21.156;2023-09-19T14:36:57;7.43;;;6.00;;
16979;SDS011;42288;52.182;21.156;2023-09-19T14:39:23;10.93;;;5.83;;
16979;SDS011;42288;52.182;21.156;2023-09-19T14:41:50;9.57;;;5.83;;
16979;SDS011;42288;52.182;21.156;2023-09-19T14:44:15;10.03;;;6.00;;
16979;SDS011;42288;52.182;21.156;2023-09-19T14:46:41;12.07;;;6.47;;
16979;SDS011;42288;52.182;21.156;2023-09-19T14:49:10;10.90;;;7.07;;
16979;SDS011;42288;52.182;21.156;2023-09-19T14:51:37;18.40;;;8.93;;
16979;SDS011;42288;52.182;21.156;2023-09-19T14:54:04;11.77;;;7.47;;
16979;SDS011;42288;52.182;21.156;2023-09-19T14:56:32;18.10;;;8.43;;
16979;SDS011;42288;52.182;21.156;2023-09-19T14:58:58;12.63;;;8.60;;
16979;SDS011;42288;52.182;21.156;2023-09-19T15:01:24;9.67;;;7.03;;
16979;SDS011;42288;52.182;21.156;2023-09-19T15:03:49;14.50;;;7.93;;
16979;SDS011;42288;52.182;21.156;2023-09-19T15:06:15;12.73;;;7.83;;
16979;SDS011;42288;52.182;21.156;2023-09-19T15:08:43;14.67;;;8.27;;
16979;SDS011;42288;52.182;21.156;2023-09-19T15:11:12;12.80;;;7.90;;
16979;SDS011;42288;52.182;21.156;2023-09-19T15:13:41;14.93;;;9.00;;
16979;SDS011;42288;52.182;21.156;2023-09-19T15:16:08;14.27;;;7.33;;
16979;SDS011;42288;52.182;21.156;2023-09-19T15:18:34;10.67;;;7.43;;
16979;SDS011;42288;52.182;21.156;2023-09-19T15:21:04;8.40;;;6.90;;
16979;SDS011;42288;52.182;21.156;2023-09-19T15:23:31;12.80;;;7.63;;
16979;SDS011;42288;52.182;21.156;2023-09-19T15:25:59;13.10;;;8.07;;
16979;SDS011;42288;52.182;21.156;2023-09-19T15:28:26;10.90;;;6.90;;
16979;SDS011;42288;52.182;21.156;2023-09-19T15:33:32;9.37;;;6.13;;
16979;SDS011;42288;52.182;21.156;2023-09-19T15:36:04;10.63;;;6.63;;
16979;SDS011;42288;52.182;21.156;2023-09-19T15:38:31;13.20;;;6.53;;